createdAt,value
2015-10-28T00:00:36.450Z,7
2015-10-28T00:01:38.250Z,7
2015-10-28T00:02:40.034Z,7
2015-10-28T00:03:41.834Z,7
2015-10-28T00:04:43.618Z,7
2015-10-28T00:05:45.417Z,7
2015-10-28T00:06:47.267Z,7
2015-10-28T00:07:49.301Z,7
2015-10-28T00:08:50.820Z,7
2015-10-28T00:09:52.588Z,7
2015-10-28T00:10:54.373Z,6.9
2015-10-28T00:11:56.172Z,7
2015-10-28T00:12:57.956Z,6.9
2015-10-28T00:13:59.755Z,6.9
2015-10-28T00:15:01.539Z,6.9
2015-10-28T00:16:03.339Z,6.9
2015-10-28T00:17:05.186Z,6.9
2015-10-28T00:18:06.925Z,6.9
2015-10-28T00:19:08.709Z,6.9
2015-10-28T00:20:10.509Z,6.9
2015-10-28T00:21:12.292Z,6.9
2015-10-28T00:22:14.092Z,6.9
2015-10-28T00:23:15.876Z,6.9
2015-10-28T00:24:17.676Z,6.9
2015-10-28T00:25:19.475Z,6.9
2015-10-28T00:26:21.259Z,6.9
2015-10-28T00:27:23.106Z,6.9
2015-10-28T00:28:24.827Z,6.9
2015-10-28T00:29:26.876Z,6.9
2015-10-28T00:30:28.926Z,6.9
2015-10-28T00:31:30.976Z,6.9
2015-10-28T00:32:33.025Z,6.9
2015-10-28T00:33:35.074Z,6.9
2015-10-28T00:34:37.124Z,6.9
2015-10-28T00:35:39.424Z,6.9
2015-10-28T00:36:41.740Z,6.9
2015-10-28T00:37:44.101Z,6.9
2015-10-28T00:38:45.823Z,6.9
2015-10-28T00:39:48.137Z,6.9
2015-10-28T00:40:50.438Z,6.9
2015-10-28T00:41:52.737Z,6.9
2015-10-28T00:42:55.052Z,6.9
2015-10-28T00:43:57.352Z,6.9
2015-10-28T00:44:59.667Z,6.9
2015-10-28T00:46:01.966Z,6.9
2015-10-28T00:47:04.281Z,6.9
2015-10-28T00:48:06.628Z,6.9
2015-10-28T00:49:08.383Z,6.9
2015-10-28T00:50:10.683Z,6.9
2015-10-28T00:51:12.983Z,6.9
2015-10-28T00:52:15.282Z,6.9
2015-10-28T00:53:17.598Z,6.9
2015-10-28T00:55:22.211Z,6.9
2015-10-28T00:56:24.511Z,6.8
2015-10-28T00:57:26.842Z,6.9
2015-10-28T00:58:29.188Z,6.9
2015-10-28T00:59:30.926Z,6.9
2015-10-28T01:00:33.225Z,6.9
2015-10-28T01:02:37.841Z,6.8
2015-10-28T01:03:40.140Z,6.8
2015-10-28T01:04:42.455Z,6.8
2015-10-28T01:05:44.755Z,6.8
2015-10-28T01:06:47.054Z,6.8
2015-10-28T01:07:49.369Z,6.8
2015-10-28T01:08:51.732Z,6.8
2015-10-28T01:09:53.469Z,6.8
2015-10-28T01:10:51.924Z,6.8
2015-10-28T01:11:54.223Z,6.8
2015-10-28T01:12:56.539Z,6.8
2015-10-28T01:13:58.839Z,6.7
2015-10-28T01:15:01.153Z,6.8
2015-10-28T01:16:03.453Z,6.7
2015-10-28T01:17:05.753Z,6.7
2015-10-28T01:18:08.068Z,6.7
2015-10-28T01:19:10.448Z,6.7
2015-10-28T01:20:12.170Z,6.7
2015-10-28T01:21:14.470Z,6.7
2015-10-28T01:22:16.784Z,6.7
2015-10-28T01:23:19.084Z,6.7
2015-10-28T01:24:21.384Z,6.7
2015-10-28T01:25:23.700Z,6.7
2015-10-28T01:26:26.000Z,6.7
2015-10-28T01:27:28.320Z,6.7
2015-10-28T01:28:26.747Z,6.7
2015-10-28T01:30:26.962Z,6.7
2015-10-28T01:31:29.263Z,6.7
2015-10-28T01:32:27.728Z,6.6
2015-10-28T01:33:26.179Z,6.6
2015-10-28T01:34:24.630Z,6.6
2015-10-28T01:36:21.548Z,6.6
2015-10-28T01:37:20.001Z,6.6
2015-10-28T01:38:18.454Z,6.6
2015-10-28T01:39:16.971Z,6.6
2015-10-28T01:40:18.706Z,6.6
2015-10-28T01:41:17.175Z,6.6
2015-10-28T01:42:15.629Z,6.5
2015-10-28T01:43:14.100Z,6.6
2015-10-28T01:45:11.010Z,6.5
2015-10-28T01:46:09.465Z,6.5
2015-10-28T01:47:07.936Z,6.5
2015-10-28T01:48:06.391Z,6.5
2015-10-28T01:49:04.910Z,6.5
2015-10-28T01:50:06.647Z,6.5
2015-10-28T01:51:05.102Z,6.5
2015-10-28T01:52:03.557Z,6.5
2015-10-28T01:53:02.029Z,6.5
2015-10-28T01:54:00.485Z,6.5
2015-10-28T01:55:57.412Z,6.5
2015-10-28T01:56:55.868Z,6.5
2015-10-28T01:57:54.324Z,6.5
2015-10-28T01:58:53.109Z,6.5
2015-10-28T01:59:54.845Z,6.5
2015-10-28T02:00:53.551Z,6.5
2015-10-28T02:01:52.273Z,6.5
2015-10-28T02:02:50.995Z,6.5
2015-10-28T02:03:49.715Z,6.5
2015-10-28T02:04:48.437Z,6.5
2015-10-28T02:05:47.143Z,6.5
2015-10-28T02:06:45.865Z,6.5
2015-10-28T02:07:44.585Z,6.5
2015-10-28T02:08:43.354Z,6.5
2015-10-28T02:09:45.091Z,6.5
2015-10-28T02:10:43.812Z,6.5
2015-10-28T02:11:42.519Z,6.5
2015-10-28T02:12:44.271Z,6.5
2015-10-28T02:13:42.992Z,6.5
2015-10-28T02:14:38.683Z,6.5
2015-10-28T02:15:37.405Z,6.4
2015-10-28T02:16:36.111Z,6.5
2015-10-28T02:17:34.831Z,6.4
2015-10-28T02:18:33.599Z,6.4
2015-10-28T02:19:35.336Z,6.4
2015-10-28T02:20:34.058Z,6.4
2015-10-28T02:21:32.780Z,6.4
2015-10-28T02:22:31.502Z,6.4
2015-10-28T02:23:30.223Z,6.4
2015-10-28T02:24:28.929Z,6.4
2015-10-28T02:25:27.650Z,6.4
2015-10-28T02:26:26.369Z,6.4
2015-10-28T02:27:25.091Z,6.4
2015-10-28T02:28:23.859Z,6.4
2015-10-28T02:29:25.596Z,6.4
2015-10-28T02:30:24.521Z,6.4
2015-10-28T02:31:26.070Z,6.4
2015-10-28T02:32:21.759Z,6.4
2015-10-28T02:33:20.466Z,6.4
2015-10-28T02:34:19.187Z,6.4
2015-10-28T02:35:17.909Z,6.4
2015-10-28T02:36:16.630Z,6.3
2015-10-28T02:37:15.352Z,6.3
2015-10-28T02:38:14.121Z,6.3
2015-10-28T02:39:15.857Z,6.3
2015-10-28T02:40:14.579Z,6.3
2015-10-28T02:41:13.300Z,6.3
2015-10-28T02:42:12.006Z,6.3
2015-10-28T02:43:10.728Z,6.3
2015-10-28T02:44:09.449Z,6.3
2015-10-28T02:45:08.171Z,6.3
2015-10-28T02:46:06.892Z,6.3
2015-10-28T02:47:05.614Z,6.3
2015-10-28T02:48:04.382Z,6.3
2015-10-28T02:49:06.120Z,6.3
2015-10-28T02:50:04.840Z,6.3
2015-10-28T02:51:03.562Z,6.3
2015-10-28T02:52:02.284Z,6.3
2015-10-28T02:53:01.005Z,6.3
2015-10-28T02:53:59.711Z,6.3
2015-10-28T02:55:01.464Z,6.3
2015-10-28T02:55:57.153Z,6.3
2015-10-28T02:56:55.875Z,6.3
2015-10-28T02:57:54.641Z,6.2
2015-10-28T02:58:56.381Z,6.2
2015-10-28T02:59:55.100Z,6.2
2015-10-28T03:00:53.820Z,6.2
2015-10-28T03:01:52.542Z,6.2
2015-10-28T03:02:51.264Z,6.2
2015-10-28T03:03:49.969Z,6.2
2015-10-28T03:04:48.691Z,6.2
2015-10-28T03:05:47.413Z,6.2
2015-10-28T03:06:46.134Z,6.2
2015-10-28T03:07:44.902Z,6.2
2015-10-28T03:08:46.655Z,6.2
2015-10-28T03:09:45.360Z,6.2
2015-10-28T03:10:44.082Z,6.2
2015-10-28T03:11:42.804Z,6.2
2015-10-28T03:12:41.525Z,6.2
2015-10-28T03:13:40.247Z,6.2
2015-10-28T03:14:38.969Z,6.2
2015-10-28T03:15:37.940Z,6.2
2015-10-28T03:16:36.661Z,6.2
2015-10-28T03:17:35.430Z,6.2
2015-10-28T03:18:37.182Z,6.2
2015-10-28T03:19:36.138Z,6.2
2015-10-28T03:20:34.875Z,6.3
2015-10-28T03:21:33.832Z,6.2
2015-10-28T03:22:32.818Z,6.2
2015-10-28T03:23:31.790Z,6.2
2015-10-28T03:24:30.761Z,6.2
2015-10-28T03:25:29.749Z,6.2
2015-10-28T03:27:27.770Z,6.2
2015-10-28T03:28:29.491Z,6.2
2015-10-28T03:29:28.460Z,6.2
2015-10-28T03:30:27.432Z,6.2
2015-10-28T03:31:29.453Z,6.2
2015-10-28T03:32:28.422Z,6.2
2015-10-28T03:33:24.362Z,6.2
2015-10-28T03:34:23.333Z,6.2
2015-10-28T03:35:22.305Z,6.2
2015-10-28T03:36:21.026Z,6.2
2015-10-28T03:37:19.810Z,6.2
2015-10-28T03:38:21.547Z,6.2
2015-10-28T03:39:20.518Z,6.2
2015-10-28T03:40:19.240Z,6.1
2015-10-28T03:41:18.211Z,6.1
2015-10-28T03:42:17.198Z,6.1
2015-10-28T03:43:16.170Z,6.1
2015-10-28T03:44:15.142Z,6.1
2015-10-28T03:45:14.113Z,6.1
2015-10-28T03:46:12.835Z,6.1
2015-10-28T03:47:11.869Z,6.1
2015-10-28T03:48:13.606Z,6.1
2015-10-28T03:49:12.593Z,6.1
2015-10-28T03:50:11.564Z,6.1
2015-10-28T03:51:10.536Z,6.1
2015-10-28T03:52:09.507Z,6.1
2015-10-28T03:53:08.495Z,6.1
2015-10-28T03:54:07.465Z,6.1
2015-10-28T03:55:06.202Z,6.1
2015-10-28T03:56:05.158Z,6.1
2015-10-28T03:57:03.942Z,6.1
2015-10-28T03:58:05.680Z,6.1
2015-10-28T03:59:04.386Z,6.1
2015-10-28T04:00:03.106Z,6.1
2015-10-28T04:01:01.829Z,6.1
2015-10-28T04:02:00.550Z,6.1
2015-10-28T04:02:59.272Z,6.1
2015-10-28T04:03:57.990Z,6.1
2015-10-28T04:04:59.745Z,6.1
2015-10-28T04:05:55.433Z,6.1
2015-10-28T04:06:54.217Z,6.1
2015-10-28T04:07:55.955Z,6.1
2015-10-28T04:08:54.676Z,6.1
2015-10-28T04:09:53.397Z,6
2015-10-28T04:10:52.119Z,6
2015-10-28T04:11:50.841Z,6
2015-10-28T04:12:49.561Z,6
2015-10-28T04:13:48.283Z,6
2015-10-28T04:14:47.005Z,6
2015-10-28T04:15:45.727Z,6
2015-10-28T04:16:44.511Z,6
2015-10-28T04:17:46.247Z,5.9
2015-10-28T04:18:44.968Z,5.9
2015-10-28T04:19:43.691Z,5.9
2015-10-28T04:20:42.411Z,5.9
2015-10-28T04:21:41.133Z,5.9
2015-10-28T04:22:39.855Z,5.9
2015-10-28T04:23:38.576Z,5.9
2015-10-28T04:24:37.297Z,5.9
2015-10-28T04:25:36.019Z,5.9
2015-10-28T04:26:34.802Z,5.9
2015-10-28T04:27:36.541Z,5.8
2015-10-28T04:28:35.262Z,5.8
2015-10-28T04:29:33.983Z,5.8
2015-10-28T04:32:29.632Z,5.8
2015-10-28T04:33:28.101Z,5.8
2015-10-28T04:34:26.572Z,5.8
2015-10-28T04:35:25.029Z,5.8
2015-10-28T04:36:23.546Z,5.7
2015-10-28T04:37:25.284Z,5.7
2015-10-28T04:38:24.365Z,5.7
2015-10-28T04:41:19.154Z,5.7
2015-10-28T04:42:21.454Z,5.7
2015-10-28T04:43:23.769Z,5.7
2015-10-28T04:44:26.084Z,5.7
2015-10-28T04:45:28.384Z,5.7
2015-10-28T04:46:30.762Z,5.7
2015-10-28T04:47:32.498Z,5.7
2015-10-28T04:48:34.814Z,5.7
2015-10-28T04:49:37.129Z,5.7
2015-10-28T04:50:39.444Z,5.6
2015-10-28T04:51:41.759Z,5.6
2015-10-28T04:52:44.075Z,5.6
2015-10-28T04:53:46.423Z,5.6
2015-10-28T04:54:48.708Z,5.6
2015-10-28T04:55:51.023Z,5.6
2015-10-28T04:56:53.385Z,5.5
2015-10-28T04:57:55.122Z,5.6
2015-10-28T04:58:57.437Z,5.5
2015-10-28T04:59:59.752Z,5.5
2015-10-28T05:01:02.067Z,5.5
2015-10-28T05:02:04.383Z,5.5
2015-10-28T05:03:06.698Z,5.5
2015-10-28T05:04:08.998Z,5.5
2015-10-28T05:05:11.313Z,5.5
2015-10-28T05:06:13.628Z,5.5
2015-10-28T05:07:16.006Z,5.5
2015-10-28T05:08:17.759Z,5.4
2015-10-28T05:09:20.058Z,5.5
2015-10-28T05:10:22.374Z,5.4
2015-10-28T05:11:24.689Z,5.4
2015-10-28T05:12:27.005Z,5.4
2015-10-28T05:13:29.303Z,5.4
2015-10-28T05:14:31.619Z,5.4
2015-10-28T05:15:33.934Z,5.4
2015-10-28T05:16:36.250Z,5.4
2015-10-28T05:17:38.611Z,5.4
2015-10-28T05:18:40.364Z,5.3
2015-10-28T05:19:42.679Z,5.4
2015-10-28T05:20:44.980Z,5.3
2015-10-28T05:21:47.311Z,5.3
2015-10-28T05:22:49.610Z,5.3
2015-10-28T05:23:51.924Z,5.3
2015-10-28T05:24:54.240Z,5.3
2015-10-28T05:25:56.555Z,5.3
2015-10-28T05:26:58.871Z,5.3
2015-10-28T05:28:01.233Z,5.3
2015-10-28T05:29:02.969Z,5.3
2015-10-28T05:30:05.301Z,5.3
2015-10-28T05:31:07.600Z,5.3
2015-10-28T05:32:09.916Z,5.3
2015-10-28T05:33:12.230Z,5.2
2015-10-28T05:34:14.546Z,5.2
2015-10-28T05:35:16.861Z,5.2
2015-10-28T05:36:19.177Z,5.2
2015-10-28T05:37:21.492Z,5.2
2015-10-28T05:38:23.854Z,5.2
2015-10-28T05:39:25.607Z,5.2
2015-10-28T05:40:27.906Z,5.2
2015-10-28T05:41:30.222Z,5.2
2015-10-28T05:42:32.537Z,5.2
2015-10-28T05:43:34.852Z,5.2
2015-10-28T05:44:37.168Z,5.2
2015-10-28T05:45:39.499Z,5.1
2015-10-28T05:46:41.798Z,5.1
2015-10-28T05:47:44.116Z,5.1
2015-10-28T05:48:46.478Z,5.1
2015-10-28T05:49:48.230Z,5.1
2015-10-28T05:50:50.545Z,5.1
2015-10-28T05:51:52.861Z,5.1
2015-10-28T05:52:55.176Z,5.1
2015-10-28T05:53:57.491Z,5
2015-10-28T05:54:59.790Z,5.1
2015-10-28T05:56:02.122Z,5
2015-10-28T05:57:04.421Z,5
2015-10-28T05:58:06.733Z,5
2015-10-28T05:59:09.111Z,5
2015-10-28T06:00:10.848Z,5
2015-10-28T06:01:13.164Z,5
2015-10-28T06:02:15.478Z,5
2015-10-28T06:03:17.810Z,5
2015-10-28T06:04:20.109Z,5
2015-10-28T06:05:22.425Z,5
2015-10-28T06:06:24.740Z,5
2015-10-28T06:07:27.055Z,5
2015-10-28T06:08:29.370Z,5
2015-10-28T06:09:31.747Z,5
2015-10-28T06:10:33.486Z,4.9
2015-10-28T06:11:35.800Z,4.9
2015-10-28T06:12:38.115Z,4.9
2015-10-28T06:13:40.431Z,5
2015-10-28T06:14:42.747Z,4.9
2015-10-28T06:15:45.061Z,4.9
2015-10-28T06:16:47.127Z,4.9
2015-10-28T06:17:49.442Z,4.9
2015-10-28T06:18:51.757Z,4.9
2015-10-28T06:19:54.119Z,4.9
2015-10-28T06:20:55.857Z,4.9
2015-10-28T06:21:57.922Z,4.9
2015-10-28T06:22:59.987Z,4.9
2015-10-28T06:24:02.052Z,4.9
2015-10-28T06:25:04.101Z,4.9
2015-10-28T06:26:06.166Z,4.9
2015-10-28T06:27:08.232Z,4.9
2015-10-28T06:28:10.032Z,4.9
2015-10-28T06:29:11.816Z,4.9
2015-10-28T06:30:13.943Z,4.9
2015-10-28T06:31:15.697Z,4.9
2015-10-28T06:32:17.496Z,4.9
2015-10-28T06:33:19.296Z,4.9
2015-10-28T06:34:21.095Z,4.9
2015-10-28T06:35:22.911Z,4.9
2015-10-28T06:36:24.710Z,4.9
2015-10-28T06:37:26.526Z,4.9
2015-10-28T06:38:28.325Z,4.8
2015-10-28T06:39:30.109Z,4.9
2015-10-28T06:40:31.971Z,4.9
2015-10-28T06:41:33.724Z,4.9
2015-10-28T06:42:35.524Z,4.8
2015-10-28T06:43:37.338Z,4.8
2015-10-28T06:44:39.138Z,4.8
2015-10-28T06:45:40.937Z,4.8
2015-10-28T06:46:42.737Z,4.8
2015-10-28T06:47:44.553Z,4.8
2015-10-28T06:48:46.337Z,4.9
2015-10-28T06:49:48.152Z,4.9
2015-10-28T06:50:50.017Z,4.9
2015-10-28T06:51:51.753Z,4.9
2015-10-28T06:52:53.570Z,4.9
2015-10-28T06:53:55.368Z,4.9
2015-10-28T06:54:57.168Z,4.9
2015-10-28T06:55:58.968Z,4.9
2015-10-28T06:57:00.518Z,4.9
2015-10-28T06:58:02.317Z,4.9
2015-10-28T06:59:03.851Z,4.9
2015-10-28T07:00:05.666Z,4.9
2015-10-28T07:01:07.262Z,4.9
2015-10-28T07:02:09.015Z,4.9
2015-10-28T07:03:10.549Z,4.9
2015-10-28T07:04:12.100Z,4.9
2015-10-28T07:05:13.648Z,4.9
2015-10-28T07:06:15.198Z,4.9
2015-10-28T07:07:16.747Z,4.9
2015-10-28T07:08:18.281Z,4.9
2015-10-28T07:09:19.847Z,4.9
2015-10-28T07:10:21.381Z,5
2015-10-28T07:11:22.978Z,5
2015-10-28T07:12:24.731Z,5
2015-10-28T07:13:26.280Z,5
2015-10-28T07:14:27.814Z,5
2015-10-28T07:15:29.114Z,5
2015-10-28T07:16:30.397Z,5
2015-10-28T07:17:31.681Z,5.1
2015-10-28T07:18:32.981Z,5.1
2015-10-28T07:19:34.265Z,5.1
2015-10-28T07:20:35.549Z,5.1
2015-10-28T07:21:36.896Z,5.1
2015-10-28T07:22:38.649Z,5.1
2015-10-28T07:23:39.932Z,5.1
2015-10-28T07:24:41.232Z,5.2
2015-10-28T07:25:42.515Z,5.2
2015-10-28T07:26:43.799Z,5.2
2015-10-28T07:27:44.833Z,5.2
2015-10-28T07:28:45.868Z,5.3
2015-10-28T07:29:46.902Z,5.3
2015-10-28T07:30:47.935Z,5.3
2015-10-28T07:31:49.017Z,5.3
2015-10-28T07:32:50.754Z,5.3
2015-10-28T07:33:51.537Z,5.3
2015-10-28T07:34:52.307Z,5.3
2015-10-28T07:35:53.090Z,5.3
2015-10-28T07:36:53.858Z,5.4
2015-10-28T07:37:54.643Z,5.4
2015-10-28T07:38:55.410Z,5.4
2015-10-28T07:39:56.226Z,5.5
2015-10-28T07:40:56.963Z,5.5
2015-10-28T07:41:57.809Z,5.5
2015-10-28T07:44:00.314Z,5.6
2015-10-28T07:45:01.099Z,5.5
2015-10-28T07:46:01.868Z,5.6
2015-10-28T07:47:02.635Z,5.6
2015-10-28T07:48:03.404Z,5.7
2015-10-28T07:49:04.187Z,5.7
2015-10-28T07:50:04.956Z,5.7
2015-10-28T07:51:05.475Z,5.7
2015-10-28T07:52:05.790Z,5.7
2015-10-28T07:53:07.542Z,5.7
2015-10-28T07:54:07.795Z,5.7
2015-10-28T07:55:08.064Z,5.7
2015-10-28T07:56:08.332Z,5.8
2015-10-28T07:57:08.601Z,5.8
2015-10-28T07:58:08.853Z,5.9
2015-10-28T07:59:09.122Z,5.9
2015-10-28T08:00:09.374Z,5.9
2015-10-28T08:01:09.643Z,6
2015-10-28T08:02:09.958Z,6
2015-10-28T08:03:11.695Z,6.1
2015-10-28T08:04:11.948Z,6.1
2015-10-28T08:05:12.217Z,6.2
2015-10-28T08:06:12.470Z,6.3
2015-10-28T08:07:12.473Z,6.3
2015-10-28T08:08:12.475Z,6.3
2015-10-28T08:09:12.478Z,6.4
2015-10-28T08:10:12.231Z,6.5
2015-10-28T08:11:11.452Z,6.5
2015-10-28T08:13:12.754Z,6.6
2015-10-28T08:14:11.992Z,6.7
2015-10-28T08:15:11.212Z,6.8
2015-10-28T08:16:10.450Z,6.8
2015-10-28T08:17:09.687Z,6.9
2015-10-28T08:18:08.908Z,6.9
2015-10-28T08:19:07.880Z,7
2015-10-28T08:20:06.586Z,7.1
2015-10-28T08:21:05.057Z,7.2
2015-10-28T08:22:03.572Z,7.2
2015-10-28T08:23:05.297Z,7.3
2015-10-28T08:24:04.016Z,7.3
2015-10-28T08:25:02.736Z,7.4
2015-10-28T08:26:01.193Z,7.5
2015-10-28T08:27:03.492Z,7.6
2015-10-28T08:28:05.808Z,7.7
2015-10-28T08:29:07.576Z,7.7
2015-10-28T08:30:08.860Z,7.8
2015-10-28T08:31:09.878Z,7.8
2015-10-28T08:32:10.975Z,7.9
2015-10-28T08:33:12.696Z,7.9
2015-10-28T08:34:12.950Z,7.9
2015-10-28T08:35:13.218Z,8
2015-10-28T08:36:13.721Z,8.1
2015-10-28T08:37:14.239Z,8.1
2015-10-28T08:38:14.741Z,8.1
2015-10-28T08:39:15.244Z,8.2
2015-10-28T08:40:15.747Z,8.3
2015-10-28T08:41:16.250Z,8.4
2015-10-28T08:42:16.566Z,8.4
2015-10-28T08:43:18.286Z,8.5
2015-10-28T08:44:18.539Z,8.5
2015-10-28T08:45:18.776Z,8.6
2015-10-28T08:46:19.029Z,8.7
2015-10-28T08:47:19.282Z,8.7
2015-10-28T08:48:19.268Z,8.8
2015-10-28T08:49:18.990Z,8.9
2015-10-28T08:50:18.461Z,8.9
2015-10-28T08:51:18.199Z,9.1
2015-10-28T08:52:17.982Z,9.1
2015-10-28T08:53:19.704Z,9.2
2015-10-28T08:54:18.941Z,9.3
2015-10-28T08:55:18.147Z,9.3
2015-10-28T08:56:17.103Z,9.3
2015-10-28T08:57:15.559Z,9.4
2015-10-28T08:58:14.015Z,9.5
2015-10-28T08:59:16.315Z,9.5
2015-10-28T09:01:20.898Z,9.5
2015-10-28T09:02:23.244Z,9.6
2015-10-28T09:03:24.950Z,9.7
2015-10-28T09:04:26.984Z,9.7
2015-10-28T09:05:29.034Z,9.8
2015-10-28T09:06:31.068Z,9.8
2015-10-28T09:07:32.836Z,9.9
2015-10-28T09:08:34.620Z,9.9
2015-10-28T09:09:36.389Z,10
2015-10-28T09:11:39.425Z,10
2015-10-28T09:12:40.239Z,10.1
2015-10-28T09:13:41.946Z,10.1
2015-10-28T09:14:42.183Z,10.1
2015-10-28T09:15:42.169Z,10.1
2015-10-28T09:16:42.142Z,10.1
2015-10-28T09:17:42.378Z,10.2
2015-10-28T09:18:42.616Z,10.2
2015-10-28T09:19:42.852Z,10.3
2015-10-28T09:20:43.090Z,10.2
2015-10-28T09:21:43.327Z,10.3
2015-10-28T09:22:43.361Z,10.3
2015-10-28T09:23:45.099Z,10.3
2015-10-28T09:24:44.819Z,10.4
2015-10-28T09:25:44.557Z,10.4
2015-10-28T09:26:58.265Z,10.4
2015-10-28T09:27:43.499Z,10.4
2015-10-28T09:28:42.722Z,10.5
2015-10-28T09:29:41.927Z,10.5
2015-10-28T09:30:41.383Z,10.5
2015-10-28T09:31:41.104Z,10.5
2015-10-28T09:32:40.889Z,10.5
2015-10-28T09:33:42.626Z,10.6
2015-10-28T09:34:42.332Z,10.7
2015-10-28T09:35:41.537Z,10.7
2015-10-28T09:36:40.493Z,10.7
2015-10-28T09:37:39.698Z,10.7
2015-10-28T09:38:39.185Z,10.7
2015-10-28T09:39:38.392Z,10.7
2015-10-28T09:40:37.598Z,10.7
2015-10-28T09:41:36.803Z,10.7
2015-10-28T09:42:36.088Z,10.8
2015-10-28T09:43:37.809Z,10.8
2015-10-28T09:44:36.764Z,10.8
2015-10-28T09:45:35.971Z,10.9
2015-10-28T09:46:35.176Z,10.9
2015-10-28T09:47:34.398Z,10.9
2015-10-28T09:48:33.588Z,11
2015-10-28T09:49:32.810Z,11
2015-10-28T09:50:31.765Z,11
2015-10-28T09:51:30.971Z,11.1
2015-10-28T09:52:29.989Z,11.1
2015-10-28T09:53:31.696Z,11.1
2015-10-28T09:54:30.651Z,11.1
2015-10-28T09:55:29.606Z,11.2
2015-10-28T09:56:28.547Z,11.2
2015-10-28T09:57:27.770Z,11.3
2015-10-28T09:58:26.709Z,11.3
2015-10-28T09:59:25.665Z,11.3
2015-10-28T10:00:24.618Z,11.3
2015-10-28T10:01:23.575Z,11.4
2015-10-28T10:02:22.061Z,11.3
2015-10-28T10:03:23.783Z,11.3
2015-10-28T10:04:26.067Z,11.3
2015-10-28T10:05:28.353Z,11.4
2015-10-28T10:06:30.387Z,11.4
2015-10-28T10:07:32.672Z,11.4
2015-10-28T10:08:34.955Z,11.4
2015-10-28T10:09:36.723Z,11.4
2015-10-28T10:10:38.491Z,11.4
2015-10-28T10:11:40.260Z,11.4
2015-10-28T10:12:42.091Z,11.3
2015-10-28T10:13:43.812Z,11.4
2015-10-28T10:14:45.830Z,11.4
2015-10-28T10:15:47.599Z,11.3
2015-10-28T10:16:49.367Z,11.4
2015-10-28T10:17:51.136Z,11.3
2015-10-28T10:18:53.169Z,11.4
2015-10-28T10:19:54.938Z,11.4
2015-10-28T10:20:56.971Z,11.4
2015-10-28T10:21:59.006Z,11.4
2015-10-28T10:23:01.071Z,11.3
2015-10-28T10:24:02.793Z,11.4
2015-10-28T10:25:04.810Z,11.3
2015-10-28T10:26:06.579Z,11.4
2015-10-28T10:27:08.613Z,11.4
2015-10-28T10:28:10.632Z,11.3
2015-10-28T10:29:12.400Z,11.4
2015-10-28T10:30:14.168Z,11.4
2015-10-28T10:31:15.937Z,11.3
2015-10-28T10:32:17.705Z,11.3
2015-10-28T10:33:19.271Z,11.3
2015-10-28T10:34:20.976Z,11.3
2015-10-28T10:35:22.729Z,11.3
2015-10-28T10:36:24.216Z,11.3
2015-10-28T10:37:25.987Z,11.3
2015-10-28T10:38:27.740Z,11.3
2015-10-28T10:39:29.503Z,11.3
2015-10-28T10:40:31.000Z,11.3
2015-10-28T10:41:32.513Z,11.3
2015-10-28T10:42:34.042Z,11.3
2015-10-28T10:43:35.851Z,11.2
2015-10-28T10:44:37.555Z,11.3
2015-10-28T10:45:39.587Z,11.2
2015-10-28T10:46:41.619Z,11.2
2015-10-28T10:47:43.634Z,11.2
2015-10-28T10:48:45.417Z,11.2
2015-10-28T10:49:47.184Z,11.2
2015-10-28T10:50:48.952Z,11.2
2015-10-28T10:51:50.719Z,11.2
2015-10-28T10:52:52.486Z,11.2
2015-10-28T10:53:54.583Z,11.1
2015-10-28T10:54:56.289Z,11.1
2015-10-28T10:55:58.323Z,11.1
2015-10-28T10:57:00.341Z,11.2
2015-10-28T10:58:02.110Z,11.1
2015-10-28T10:59:04.146Z,11.1
2015-10-28T11:00:06.180Z,11.1
2015-10-28T11:01:08.198Z,11.1
2015-10-28T11:02:10.232Z,11.1
2015-10-28T11:03:12.251Z,11.1
2015-10-28T11:04:14.332Z,11.2
2015-10-28T11:05:16.053Z,11.1
2015-10-28T11:06:18.071Z,11.1
2015-10-28T11:07:20.105Z,11.1
2015-10-28T11:08:22.124Z,11
2015-10-28T11:09:23.643Z,11
2015-10-28T11:10:25.160Z,11
2015-10-28T11:11:26.944Z,10.9
2015-10-28T11:12:28.963Z,10.9
2015-10-28T11:13:30.996Z,10.9
2015-10-28T11:14:33.077Z,10.9
2015-10-28T11:15:34.798Z,10.9
2015-10-28T11:16:36.818Z,10.9
2015-10-28T11:17:39.101Z,10.9
2015-10-28T11:18:41.384Z,10.9
2015-10-28T11:19:43.670Z,10.9
2015-10-28T11:20:45.954Z,10.9
2015-10-28T11:21:48.237Z,10.9
2015-10-28T11:22:50.536Z,10.9
2015-10-28T11:23:52.805Z,10.9
2015-10-28T11:24:51.308Z,10.9
2015-10-28T11:25:53.028Z,10.9
2015-10-28T11:26:51.454Z,10.9
2015-10-28T11:27:49.910Z,10.9
2015-10-28T11:28:48.334Z,10.9
2015-10-28T11:29:50.617Z,10.9
2015-10-28T11:30:52.902Z,10.8
2015-10-28T11:31:51.349Z,10.8
2015-10-28T11:32:53.633Z,10.8
2015-10-28T11:33:52.073Z,10.8
2015-10-28T11:34:50.576Z,10.8
2015-10-28T11:35:52.282Z,10.8
2015-10-28T11:36:50.737Z,10.8
2015-10-28T11:37:49.162Z,10.8
2015-10-28T11:38:51.449Z,10.8
2015-10-28T11:39:53.717Z,10.7
2015-10-28T11:40:56.017Z,10.8
2015-10-28T11:41:54.457Z,10.7
2015-10-28T11:42:52.882Z,10.7
2015-10-28T11:43:51.321Z,10.7
2015-10-28T11:44:49.825Z,10.7
2015-10-28T11:45:51.546Z,10.7
2015-10-28T11:46:49.987Z,10.7
2015-10-28T11:47:48.427Z,10.7
2015-10-28T11:48:46.867Z,10.7
2015-10-28T11:49:45.557Z,10.7
2015-10-28T11:50:44.262Z,10.7
2015-10-28T11:51:42.953Z,10.7
2015-10-28T11:52:41.659Z,10.7
2015-10-28T11:53:40.349Z,10.7
2015-10-28T11:54:39.101Z,10.7
2015-10-28T11:55:40.823Z,10.7
2015-10-28T11:56:39.514Z,10.7
2015-10-28T11:57:37.951Z,10.7
2015-10-28T11:58:36.407Z,10.7
2015-10-28T11:59:35.097Z,10.7
2015-10-28T12:00:33.803Z,10.7
2015-10-28T12:01:32.492Z,10.7
2015-10-28T12:02:31.449Z,10.7
2015-10-28T12:03:30.139Z,10.7
2015-10-28T12:04:28.908Z,10.7
2015-10-28T12:05:30.613Z,10.7
2015-10-28T12:06:29.319Z,10.7
2015-10-28T12:07:28.009Z,10.7
2015-10-28T12:08:26.966Z,10.7
2015-10-28T12:09:25.655Z,10.7
2015-10-28T12:10:24.361Z,10.7
2015-10-28T12:11:23.051Z,10.7
2015-10-28T12:12:22.022Z,10.7
2015-10-28T12:13:20.963Z,10.7
2015-10-28T12:14:19.982Z,10.7
2015-10-28T12:15:21.688Z,10.7
2015-10-28T12:16:20.643Z,10.7
2015-10-28T12:17:19.349Z,10.6
2015-10-28T12:18:18.055Z,10.6
2015-10-28T12:19:16.746Z,10.6
2015-10-28T12:20:15.435Z,10.6
2015-10-28T12:22:13.081Z,10.7
2015-10-28T12:23:12.053Z,10.6
2015-10-28T12:24:11.055Z,10.7
2015-10-28T12:25:12.776Z,10.7
2015-10-28T12:26:11.732Z,10.7
2015-10-28T12:27:10.673Z,10.7
2015-10-28T12:28:09.894Z,10.7
2015-10-28T12:29:09.101Z,10.7
2015-10-28T12:30:08.321Z,10.6
2015-10-28T12:31:07.528Z,10.7
2015-10-28T12:32:06.749Z,10.6
2015-10-28T12:33:05.954Z,10.7
2015-10-28T12:34:05.207Z,10.7
2015-10-28T12:35:06.929Z,10.7
2015-10-28T12:36:06.150Z,10.7
2015-10-28T12:37:05.356Z,10.7
2015-10-28T12:38:04.562Z,10.7
2015-10-28T12:39:03.768Z,10.7
2015-10-28T12:40:02.971Z,10.7
2015-10-28T12:41:02.192Z,10.7
2015-10-28T12:42:01.398Z,10.7
2015-10-28T12:43:00.603Z,10.7
2015-10-28T12:43:59.872Z,10.7
2015-10-28T12:45:01.594Z,10.7
2015-10-28T12:46:00.816Z,10.8
2015-10-28T12:47:00.006Z,10.7
2015-10-28T12:47:59.228Z,10.7
2015-10-28T12:48:58.449Z,10.8
2015-10-28T12:49:57.639Z,10.7
2015-10-28T12:50:56.845Z,10.7
2015-10-28T12:51:56.066Z,10.7
2015-10-28T12:52:55.287Z,10.8
2015-10-28T12:53:54.540Z,10.7
2015-10-28T12:54:56.247Z,10.7
2015-10-28T12:55:55.468Z,10.7
2015-10-28T12:56:54.673Z,10.7
2015-10-28T12:57:53.879Z,10.7
2015-10-28T12:58:53.085Z,10.7
2015-10-28T12:59:52.307Z,10.7
2015-10-28T13:00:51.512Z,10.7
2015-10-28T13:01:50.968Z,10.7
2015-10-28T13:02:50.472Z,10.8
2015-10-28T13:03:49.974Z,10.8
2015-10-28T13:04:51.695Z,10.8
2015-10-28T13:05:51.166Z,10.8
2015-10-28T13:06:50.638Z,10.8
2015-10-28T13:07:50.094Z,10.8
2015-10-28T13:08:49.565Z,10.8
2015-10-28T13:09:49.021Z,10.8
2015-10-28T13:10:48.493Z,10.8
2015-10-28T13:11:50.995Z,10.8
2015-10-28T13:12:47.435Z,10.9
2015-10-28T13:13:46.954Z,10.9
2015-10-28T13:14:48.676Z,10.9
2015-10-28T13:15:48.132Z,10.9
2015-10-28T13:16:47.603Z,10.9
2015-10-28T13:17:47.074Z,10.9
2015-10-28T13:18:46.545Z,10.9
2015-10-28T13:19:46.001Z,10.9
2015-10-28T13:20:45.468Z,10.8
2015-10-28T13:21:45.190Z,10.9
2015-10-28T13:22:44.911Z,10.9
2015-10-28T13:23:44.695Z,10.9
2015-10-28T13:24:46.401Z,10.9
2015-10-28T13:25:46.123Z,10.9
2015-10-28T13:26:45.860Z,10.9
2015-10-28T13:27:45.581Z,10.9
2015-10-28T13:28:45.303Z,10.9
2015-10-28T13:29:45.024Z,10.9
2015-10-28T13:30:44.745Z,10.9
2015-10-28T13:31:44.467Z,10.9
2015-10-28T13:32:44.189Z,10.9
2015-10-28T13:33:43.973Z,10.9
2015-10-28T13:34:45.694Z,10.9
2015-10-28T13:35:45.415Z,10.9
2015-10-28T13:36:45.134Z,10.9
2015-10-28T13:37:44.856Z,10.9
2015-10-28T13:38:44.577Z,10.9
2015-10-28T13:39:44.298Z,10.9
2015-10-28T13:40:44.020Z,10.9
2015-10-28T13:41:43.758Z,10.9
2015-10-28T13:42:43.478Z,10.9
2015-10-28T13:43:43.247Z,10.9
2015-10-28T13:44:44.969Z,10.9
2015-10-28T13:45:44.690Z,10.9
2015-10-28T13:46:44.411Z,10.9
2015-10-28T13:47:44.133Z,10.9
2015-10-28T13:48:43.870Z,10.9
2015-10-28T13:49:43.576Z,10.9
2015-10-28T13:50:43.547Z,10.9
2015-10-28T13:51:43.536Z,10.9
2015-10-28T13:52:43.522Z,10.9
2015-10-28T13:53:43.555Z,10.9
2015-10-28T13:54:45.277Z,10.9
2015-10-28T13:55:45.249Z,10.9
2015-10-28T13:56:45.219Z,10.9
2015-10-28T13:57:45.211Z,10.9
2015-10-28T13:58:45.185Z,10.9
2015-10-28T13:59:45.188Z,10.9
2015-10-28T14:00:45.160Z,10.9
2015-10-28T14:01:44.881Z,10.9
2015-10-28T14:02:44.587Z,10.9